Time;durP1;ratioP1;P1;durP2;ratioP2;P2;SDS_P1;SDS_P2;PMS_P1;PMS_P2;Temp;Humidity;BMP_temperature;BMP_pressure;BME280_temperature;BME280_humidity;BME280_pressure;Samples;Min_cycle;Max_cycle;Signal;HPM_P1;HPM_P2
2022/08/03 00:01:35;;;;;;;0.00;0.00;;;17.50;99.90;;;;;;5072215;28;20186;-64
2022/08/03 00:04:01;;;;;;;0.10;0.10;;;17.50;99.90;;;;;;5072486;28;20200;-65
2022/08/03 00:06:27;;;;;;;0.53;0.53;;;17.50;99.90;;;;;;5071696;28;20182;-65
2022/08/03 00:08:53;;;;;;;1.13;1.03;;;17.50;99.90;;;;;;5072069;28;20704;-65
2022/08/03 00:11:19;;;;;;;0.20;0.20;;;17.50;99.90;;;;;;5072344;28;20668;-65
2022/08/03 00:13:45;;;;;;;1.07;0.70;;;17.50;99.90;;;;;;5072086;28;20182;-65
2022/08/03 00:16:12;;;;;;;0.00;0.00;;;17.50;99.90;;;;;;5072143;28;20260;-65
2022/08/03 00:18:39;;;;;;;1.37;1.00;;;17.50;99.90;;;;;;5071770;28;20260;-65
2022/08/03 00:21:05;;;;;;;0.57;0.57;;;17.50;99.90;;;;;;5072009;28;20182;-65
2022/08/03 00:23:30;;;;;;;0.50;0.40;;;17.40;99.90;;;;;;5071736;28;20527;-65
2022/08/03 00:25:56;;;;;;;0.60;0.37;;;17.40;99.90;;;;;;5072035;28;20184;-65
2022/08/03 00:28:22;;;;;;;0.70;0.70;;;17.40;99.90;;;;;;5072183;28;20185;-65
2022/08/03 00:30:48;;;;;;;0.30;0.30;;;17.40;99.90;;;;;;5071710;28;20205;-65
2022/08/03 00:33:14;;;;;;;0.73;0.73;;;17.40;99.90;;;;;;5071793;28;20261;-64
2022/08/03 00:35:40;;;;;;;0.00;0.00;;;17.50;99.90;;;;;;5071537;28;20282;-63
2022/08/03 00:38:06;;;;;;;0.93;0.30;;;17.50;99.90;;;;;;5071800;28;20366;-64
2022/08/03 00:40:32;;;;;;;0.20;0.20;;;17.50;99.90;;;;;;5071654;28;20262;-63
2022/08/03 00:43:00;;;;;;;0.50;0.50;;;17.50;99.90;;;;;;5071858;28;20177;-64
2022/08/03 00:45:31;;;;;;;4.83;1.40;;;17.40;99.90;;;;;;5070227;28;20178;-64
2022/08/03 00:47:58;;;;;;;1.20;1.07;;;17.50;99.90;;;;;;5071931;28;20209;-64
2022/08/03 00:50:25;;;;;;;0.10;0.10;;;17.40;99.90;;;;;;5071608;28;20646;-64
2022/08/03 00:52:53;;;;;;;0.57;0.57;;;17.40;99.90;;;;;;5071584;28;20186;-64
2022/08/03 00:55:19;;;;;;;0.23;0.23;;;17.30;99.90;;;;;;5071782;28;20182;-64
2022/08/03 00:57:45;;;;;;;7.10;3.53;;;17.30;99.90;;;;;;5071529;28;20626;-64
2022/08/03 01:00:14;;;;;;;0.67;0.47;;;17.30;99.90;;;;;;5071693;28;20193;-64
2022/08/03 01:02:40;;;;;;;0.30;0.20;;;17.40;99.90;;;;;;5071315;28;20626;-64
2022/08/03 01:05:07;;;;;;;1.27;0.67;;;17.40;99.90;;;;;;5071563;28;20213;-64
2022/08/03 01:08:00;;;;;;;1.50;1.13;;;17.40;99.90;;;;;;5071505;28;20185;-64
2022/08/03 01:11:18;;;;;;;4.03;2.10;;;17.40;99.90;;;;;;5071279;28;21027;-64
2022/08/03 01:13:49;;;;;;;0.10;0.10;;;17.40;99.90;;;;;;5029165;28;20206;-64
2022/08/03 01:16:17;;;;;;;2.30;1.23;;;17.40;99.90;;;;;;5035541;28;20229;-65
2022/08/03 01:19:04;;;;;;;3.80;2.20;;;17.30;99.90;;;;;;5062508;28;20221;-64
2022/08/03 01:21:49;;;;;;;0.57;0.57;;;17.20;99.90;;;;;;5071226;28;20213;-64
2022/08/03 01:24:51;;;;;;;5.87;3.23;;;17.20;99.90;;;;;;5071543;28;20204;-64
2022/08/03 01:27:22;;;;;;;3.30;2.20;;;17.20;99.90;;;;;;5071522;28;20272;-64
2022/08/03 01:30:06;;;;;;;0.10;0.10;;;17.10;99.90;;;;;;5071169;28;20231;-64
2022/08/03 01:32:47;;;;;;;1.03;0.90;;;17.10;99.90;;;;;;5071079;28;20556;-64
2022/08/03 01:35:24;;;;;;;0.20;0.20;;;17.00;99.90;;;;;;5071592;28;20181;-64
2022/08/03 01:38:05;;;;;;;0.10;0.10;;;17.00;99.90;;;;;;5071152;28;20177;-64
2022/08/03 01:40:34;;;;;;;5.83;2.00;;;16.90;99.90;;;;;;5070763;28;20272;-65
2022/08/03 01:43:02;;;;;;;1.70;1.20;;;16.90;99.90;;;;;;5071502;28;20178;-64
2022/08/03 01:45:29;;;;;;;2.23;1.63;;;16.90;99.90;;;;;;5072815;28;20186;-65
2022/08/03 01:47:55;;;;;;;1.67;0.77;;;16.90;99.90;;;;;;5075036;28;20173;-65
2022/08/03 01:50:25;;;;;;;0.40;0.40;;;16.90;99.90;;;;;;5075148;28;20176;-65
2022/08/03 01:52:53;;;;;;;1.33;1.23;;;16.90;99.90;;;;;;5074528;28;20174;-64
2022/08/03 01:55:21;;;;;;;0.67;0.67;;;17.00;99.90;;;;;;5074938;28;20184;-64
2022/08/03 01:57:49;;;;;;;1.57;1.23;;;16.90;99.90;;;;;;5074415;28;20619;-64
2022/08/03 02:00:15;;;;;;;2.83;0.67;;;17.00;99.90;;;;;;5074900;28;20208;-64
2022/08/03 02:02:45;;;;;;;4.13;0.80;;;17.00;99.90;;;;;;5074421;28;20217;-64
2022/08/03 02:05:13;;;;;;;2.00;1.43;;;16.90;99.90;;;;;;5074737;28;20178;-65
2022/08/03 02:07:40;;;;;;;3.00;1.40;;;16.90;99.90;;;;;;5074026;28;20280;-64
2022/08/03 02:10:08;;;;;;;2.73;0.83;;;16.90;99.90;;;;;;5074254;28;20320;-65
2022/08/03 02:12:37;;;;;;;2.03;0.80;;;16.90;99.90;;;;;;5074132;28;20181;-64
2022/08/03 02:15:04;;;;;;;5.30;2.30;;;16.90;99.90;;;;;;5074430;28;20268;-64
2022/08/03 02:17:33;;;;;;;1.93;1.73;;;16.90;99.90;;;;;;5074004;28;20875;-64
2022/08/03 02:20:00;;;;;;;2.73;2.10;;;16.80;99.90;;;;;;5074095;28;20228;-64
2022/08/03 02:22:28;;;;;;;4.53;2.83;;;16.80;99.90;;;;;;5074341;28;20178;-64
2022/08/03 02:24:53;;;;;;;3.13;1.50;;;16.80;99.90;;;;;;5073894;28;20525;-63
2022/08/03 02:27:23;;;;;;;0.20;0.10;;;16.80;99.90;;;;;;5074162;28;20204;-64
2022/08/03 02:29:53;;;;;;;2.17;1.50;;;16.80;99.90;;;;;;5073798;28;20182;-64
2022/08/03 02:32:29;;;;;;;2.33;1.13;;;16.70;99.90;;;;;;5074103;28;20533;-64
2022/08/03 02:34:58;;;;;;;5.10;1.90;;;16.70;99.90;;;;;;5074135;28;20185;-64
2022/08/03 02:37:27;;;;;;;5.47;4.00;;;16.70;99.90;;;;;;5073917;28;20193;-64
2022/08/03 02:40:00;;;;;;;8.23;2.83;;;16.60;99.90;;;;;;5073523;28;20228;-64
2022/08/03 02:42:28;;;;;;;0.53;0.53;;;16.60;99.90;;;;;;5073797;28;20184;-65
2022/08/03 02:44:57;;;;;;;1.40;1.20;;;16.50;99.90;;;;;;5073208;28;20635;-64
2022/08/03 02:47:26;;;;;;;0.40;0.30;;;16.50;99.90;;;;;;5073923;28;20181;-64
2022/08/03 02:49:55;;;;;;;0.10;0.10;;;16.40;99.90;;;;;;5073575;28;20174;-64
2022/08/03 02:52:25;;;;;;;0.67;0.60;;;16.40;99.90;;;;;;5073628;28;20185;-65
2022/08/03 02:54:55;;;;;;;1.70;1.60;;;16.30;99.90;;;;;;5073362;28;20201;-64
2022/08/03 02:57:22;;;;;;;0.20;0.20;;;16.40;99.90;;;;;;5073582;28;20189;-64
2022/08/03 02:59:48;;;;;;;2.00;1.40;;;16.40;99.90;;;;;;5073416;28;20710;-65
2022/08/03 03:02:15;;;;;;;0.53;0.30;;;16.30;99.90;;;;;;5073540;28;20178;-65
2022/08/03 03:04:42;;;;;;;1.97;1.83;;;16.30;99.90;;;;;;5073173;28;20189;-64
2022/08/03 03:07:14;;;;;;;3.60;1.70;;;16.30;99.90;;;;;;5073376;28;20607;-64
2022/08/03 03:09:40;;;;;;;1.60;1.50;;;16.30;99.90;;;;;;5073418;28;20759;-63
2022/08/03 03:12:08;;;;;;;0.63;0.63;;;16.40;99.90;;;;;;5073080;28;20230;-64
2022/08/03 03:14:35;;;;;;;1.97;1.60;;;16.40;99.90;;;;;;5072864;28;20700;-64
2022/08/03 03:17:02;;;;;;;5.63;2.20;;;16.40;99.90;;;;;;5073028;28;20519;-65
2022/08/03 03:19:29;;;;;;;1.97;1.10;;;16.40;99.90;;;;;;5073012;28;20216;-65
2022/08/03 03:21:57;;;;;;;2.40;1.40;;;16.40;99.90;;;;;;5072752;28;20643;-63
2022/08/03 03:24:25;;;;;;;0.83;0.83;;;16.40;99.90;;;;;;5072648;28;20196;-64
2022/08/03 03:26:51;;;;;;;5.63;3.70;;;16.40;99.90;;;;;;5072177;28;20185;-65
2022/08/03 03:29:17;;;;;;;1.30;1.20;;;16.50;99.90;;;;;;5073427;28;20656;-65
2022/08/03 03:31:42;;;;;;;9.97;6.03;;;16.50;99.90;;;;;;5072342;28;20188;-65
2022/08/03 03:34:08;;;;;;;9.83;2.33;;;16.60;99.90;;;;;;5072916;28;20258;-64
2022/08/03 03:36:34;;;;;;;0.00;0.00;;;16.60;99.90;;;;;;5072455;28;20286;-64
2022/08/03 03:39:00;;;;;;;1.57;0.83;;;16.70;99.90;;;;;;5072483;28;20239;-63
2022/08/03 03:41:26;;;;;;;0.77;0.37;;;16.70;99.90;;;;;;5072155;28;20264;-64
2022/08/03 03:43:52;;;;;;;0.27;0.27;;;16.70;99.90;;;;;;5071884;28;20182;-63
2022/08/03 03:46:18;;;;;;;9.80;2.80;;;16.70;99.90;;;;;;5072439;28;20178;-64
2022/08/03 03:48:44;;;;;;;0.33;0.33;;;16.80;99.90;;;;;;5072105;28;20182;-64
2022/08/03 03:51:10;;;;;;;0.30;0.30;;;16.80;99.90;;;;;;5072148;28;20693;-64
2022/08/03 03:53:36;;;;;;;8.57;3.03;;;16.90;99.90;;;;;;5070319;28;20185;-63
2022/08/03 03:56:02;;;;;;;0.20;0.20;;;16.90;99.90;;;;;;5071773;28;20583;-65
2022/08/03 03:58:28;;;;;;;0.70;0.63;;;17.00;99.90;;;;;;5071616;28;20373;-64
2022/08/03 04:00:54;;;;;;;1.57;1.17;;;17.00;99.90;;;;;;5071930;28;20540;-64
2022/08/03 04:03:19;;;;;;;3.90;1.83;;;17.10;99.90;;;;;;5071896;28;20665;-65
